• Join FlightAware (Why Join?)
  • Login
  • US Flag 
11:17AM EST


 

Airport Tracker/Info


-or-


 

Live Flight TrackerFlight Track Log ✈ OPT710 ✈ 04-Sep-2013 ✈ KAPA - KMKY

Flight Track Log - Related Links

Times and Time Zones

All times are in EDT time to prevent confusion due to time zone crossing. See the OPT710 flight status page for this flight to view local times or setup timezone preferences in your user account.

Time Position Orientation Groundspeed Altitude Reporting Facility
EDT Latitude Longitude Course Direction KTS MPH feet Rate Location/Type
04:12PM 39.5000 -104.9333 237° Southwest 277 319 9,900  Level Denver TRACON
04:13PM 39.5589 -104.9836 327° Northwest 303 349 12,400 3,180 Climbing Denver Center
04:14PM 39.6483 -104.9389 21° North 316 364 16,000 2,580 Climbing Denver Center
04:15PM 39.7158 -104.8606 42° Northeast 356 410 17,800 1,680 Climbing Denver Center
04:16PM 39.7047 -104.7158 96° East 383 441 19,500 1,440 Climbing Denver Center
04:17PM 39.6894 -104.5778 98° East 389 448 20,800 1,200 Climbing Denver Center
04:18PM 39.6697 -104.4247 99° East 401 461 22,100 1,200 Climbing Denver Center
04:19PM 39.6528 -104.2781 98° East 414 476 23,300 1,020 Climbing Denver Center
04:20PM 39.6350 -104.1344 99° East 415 478 24,300 840 Climbing Denver Center
04:21PM 39.6194 -104.0133 99° East 427 491 25,100 960 Climbing Denver Center
04:22PM 39.5975 -103.8314 99° East 421 484 26,400 1,200 Climbing Denver Center
04:23PM 39.5536 -103.6506 107° East 426 490 27,600 960 Climbing Denver Center
04:24PM 39.5136 -103.4964 109° East 449 517 28,400 720 Climbing Denver Center
04:25PM 39.4722 -103.3408 109° East 456 525 29,200 720 Climbing Denver Center
04:26PM 39.4303 -103.1797 109° East 470 541 30,000 540 Climbing Denver Center
04:27PM 39.3953 -103.0489 109° East 478 550 30,400 540 Climbing Denver Center
04:28PM 39.3406 -102.8481 109° East 493 567 31,200 900 Climbing Denver Center
04:29PM 39.2861 -102.6467 109° East 499 574 32,300 960 Climbing Denver Center
04:30PM 39.2414 -102.4886 110° East 493 567 33,300 960 Climbing Denver Center
04:32PM 39.1928 -102.3019 109° East 492 566 34,500 720 Climbing Denver Center
04:33PM 39.1419 -102.1167 109° East 492 566 35,000 240 Climbing Denver Center
04:34PM 39.0892 -101.9233 109° East 507 583 35,000  Level Denver Center
04:35PM 39.0433 -101.7572 110° East 513 590 35,000 240 Level Denver Center
04:36PM 38.9842 -101.5428 109° East 502 578 35,600 720 Climbing Denver Center
04:37PM 38.9394 -101.3831 110° East 496 571 36,500 1,020 Climbing Denver Center
04:38PM 38.8872 -101.1983 110° East 494 568 38,000 1,500 Climbing Denver Center
04:39PM 38.8286 -100.9897 110° East 489 563 39,900 1,440 Climbing Denver Center
04:40PM 38.7856 -100.8358 110° East 483 556 41,000 960 Climbing Denver Center
04:41PM 38.7336 -100.6586 111° Southeast 478 550 42,000 900 Climbing Denver Center
04:42PM 38.6897 -100.5056 110° East 478 550 42,900 780 Climbing Denver Center
04:43PM 38.6453 -100.3544 111° Southeast 475 547 43,700 720 Climbing Denver Center
04:44PM 38.5939 -100.1778 110° East 474 545 44,500 600 Climbing Denver Center
04:45PM 38.5506 -100.0300 111° Southeast 466 536 45,000 240 Climbing Denver Center
04:46PM 38.4994 -99.8558 111° Southeast 468 539 45,000  Level Denver Center
04:48PM 38.4542 -99.7044 111° Southeast 473 544 45,000  Level Denver Center
04:49PM 38.4006 -99.5317 112° Southeast 469 540 45,000  Level Kansas City Center
04:50PM 38.3536 -99.3742 111° Southeast 467 537 45,000  Level Kansas City Center
04:51PM 38.3067 -99.2208 111° Southeast 466 536 45,000  Level Kansas City Center
04:52PM 38.2614 -99.0675 111° Southeast 465 535 45,000  Level Kansas City Center
04:53PM 38.2139 -98.9156 112° Southeast 463 533 45,000  Level Kansas City Center
04:54PM 38.1686 -98.7614 110° East 465 535 45,000  Level Kansas City Center
04:55PM 38.1211 -98.6103 112° Southeast 463 533 45,000  Level Kansas City Center
04:56PM 38.0656 -98.4278 111° Southeast 463 533 45,000  Level Kansas City Center
04:57PM 38.0172 -98.2767 112° Southeast 463 533 45,000  Level Kansas City Center
04:58PM 37.9708 -98.1297 112° Southeast 462 532 45,000  Level Kansas City Center
04:59PM 37.9239 -97.9814 112° Southeast 457 526 45,000  Level Kansas City Center
05:00PM 37.8750 -97.8303 112° Southeast 458 527 45,000  Level Kansas City Center
05:01PM 37.8122 -97.6361 112° Southeast 474 545 45,000  Level Kansas City Center
05:02PM 37.7642 -97.4869 112° Southeast 464 534 45,000  Level Kansas City Center
05:03PM 37.7208 -97.3483 112° Southeast 463 533 45,000  Level Kansas City Center
05:04PM 37.6717 -97.1969 112° Southeast 465 535 45,000  Level Kansas City Center
05:05PM 37.6125 -97.0153 112° Southeast 467 537 45,000  Level Kansas City Center
05:06PM 37.5631 -96.8633 112° Southeast 469 540 45,000  Level Kansas City Center
05:07PM 37.5139 -96.7122 112° Southeast 467 537 45,000  Level Kansas City Center
05:08PM 37.4639 -96.5600 112° Southeast 469 540 45,000  Level Kansas City Center
05:09PM 37.4111 -96.3983 112° Southeast 469 540 45,000  Level Kansas City Center
05:10PM 37.3592 -96.2489 114° Southeast 467 537 45,000  Level Kansas City Center
05:11PM 37.3075 -96.0961 113° Southeast 472 543 45,000  Level Kansas City Center
05:12PM 37.2561 -95.9447 113° Southeast 470 541 45,000  Level Kansas City Center
05:13PM 37.1939 -95.7631 113° Southeast 471 542 45,000  Level Kansas City Center
05:14PM 37.1408 -95.6111 114° Southeast 472 543 45,000  Level Kansas City Center
05:15PM 37.0889 -95.4600 113° Southeast 471 542 45,000  Level Kansas City Center
05:16PM 37.0361 -95.3114 114° Southeast 465 535 45,000  Level Kansas City Center
05:18PM 36.9836 -95.1592 113° Southeast 469 540 45,000  Level Kansas City Center
05:19PM 36.9306 -95.0058 113° Southeast 473 544 45,000  Level Kansas City Center
05:20PM 36.8761 -94.8539 114° Southeast 476 548 45,000  Level Kansas City Center
05:21PM 36.8225 -94.7011 114° Southeast 476 548 45,000  Level Kansas City Center
05:22PM 36.7569 -94.5194 114° Southeast 477 549 45,000  Level Kansas City Center
05:23PM 36.7028 -94.3692 114° Southeast 475 547 45,000  Level Kansas City Center
05:24PM 36.6481 -94.2178 114° Southeast 476 548 45,000  Level Kansas City Center
05:25PM 36.5931 -94.0658 114° Southeast 479 551 45,000  Level Kansas City Center
05:26PM 36.5386 -93.9139 114° Southeast 480 552 45,000  Level Kansas City Center
05:27PM 36.4853 -93.7731 115° Southeast 477 549 45,000  Level Kansas City Center
05:28PM 36.4208 -93.5922 114° Southeast 477 549 45,000  Level Kansas City Center
05:29PM 36.3653 -93.4422 115° Southeast 478 550 45,000  Level Kansas City Center
05:30PM 36.3100 -93.2922 115° Southeast 478 550 45,000  Level Kansas City Center
05:31PM 36.2536 -93.1422 115° Southeast 479 551 45,000  Level Kansas City Center
05:32PM 36.1981 -92.9908 114° Southeast 481 554 45,000  Level Kansas City Center
05:33PM 36.1417 -92.8386 115° Southeast 484 557 45,000  Level Kansas City Center
05:34PM 36.0844 -92.6869 115° Southeast 485 558 45,000  Level Kansas City Center
05:35PM 36.0150 -92.5047 115° Southeast 474 545 45,000  Level Memphis Center
05:36PM 35.9592 -92.3572 115° Southeast 474 545 45,000  Level Memphis Center
05:37PM 35.8989 -92.2072 116° Southeast 474 545 45,000  Level Memphis Center
05:38PM 35.8428 -92.0575 115° Southeast 474 545 45,000  Level Memphis Center
05:39PM 35.7842 -91.9078 116° Southeast 474 545 45,000  Level Memphis Center
05:40PM 35.7275 -91.7583 115° Southeast 474 545 45,000  Level Memphis Center
05:41PM 35.6708 -91.6092 115° Southeast 474 545 45,000  Level Memphis Center
05:42PM 35.6094 -91.4603 117° Southeast 474 545 45,000  Level Memphis Center
05:43PM 35.5564 -91.3294 116° Southeast 474 545 45,000  Level Memphis Center
05:44PM 35.4969 -91.1808 116° Southeast 474 545 45,000  Level Memphis Center
05:45PM 35.4394 -91.0297 115° Southeast 474 545 45,000  Level Memphis Center
05:46PM 35.3817 -90.8842 116° Southeast 474 545 45,000  Level Memphis Center
05:47PM 35.3217 -90.7361 116° Southeast 474 545 45,000  Level Memphis Center
05:48PM 35.2575 -90.5758 116° Southeast 467 537 45,000  Level Memphis Center
05:49PM 35.1992 -90.4308 116° Southeast 472 543 45,000  Level Memphis Center
05:50PM 35.1408 -90.2861 116° Southeast 472 543 45,000  Level Memphis Center
05:51PM 35.0803 -90.1389 117° Southeast 472 543 45,000  Level Memphis Center
05:52PM 35.0194 -89.9994 118° Southeast 472 543 45,000  Level Memphis Center
05:53PM 34.9333 -89.8883 133° Southeast 453 521 45,000  Level Memphis Center
05:54PM 34.8161 -89.7906 146° Southeast 479 551 45,000  Level Memphis Center
05:55PM 34.7114 -89.6875 141° Southeast 479 551 45,000  Level Memphis Center
05:56PM 34.5917 -89.5725 142° Southeast 494 568 45,000  Level Memphis Center
05:57PM 34.4867 -89.4703 141° Southeast 488 562 45,000  Level Memphis Center
05:58PM 34.3817 -89.3681 141° Southeast 488 562 45,000  Level Memphis Center
05:59PM 34.2764 -89.2664 141° Southeast 494 568 45,000  Level Memphis Center
06:00PM 34.1733 -89.1672 141° Southeast 494 568 45,000  Level Memphis Center
06:01PM 34.0658 -89.0633 141° Southeast 494 568 45,000  Level Memphis Center
06:02PM 33.9603 -88.9597 141° Southeast 494 568 45,000  Level Memphis Center
06:03PM 33.8547 -88.8614 142° Southeast 494 568 45,000  Level Memphis Center
06:04PM 33.7597 -88.7756 143° Southeast 489 563 45,000  Level Memphis Center
06:05PM 33.6542 -88.6778 142° Southeast 489 563 45,000  Level Memphis Center
06:06PM 33.5464 -88.5775 142° Southeast 489 563 45,000  Level Memphis Center
06:08PM 33.3656 -88.3044 128° Southeast 477 549 45,000  Level Atlanta Center
06:09PM 33.2886 -88.1714 125° Southeast 482 555 45,000  Level Atlanta Center
06:10PM 33.2158 -88.0389 123° Southeast 487 560 45,000  Level Atlanta Center
06:11PM 33.1389 -87.9014 124° Southeast 487 560 45,000  Level Atlanta Center
06:12PM 33.0614 -87.7689 125° Southeast 487 560 45,000  Level Atlanta Center
06:13PM 32.9903 -87.6397 123° Southeast 487 560 45,000  Level Atlanta Center
06:14PM 32.9128 -87.5053 124° Southeast 482 555 45,000  Level Atlanta Center
06:15PM 32.8389 -87.3764 124° Southeast 482 555 45,000  Level Atlanta Center
06:16PM 32.7633 -87.2425 124° Southeast 482 555 45,000  Level Atlanta Center
06:17PM 32.6872 -87.1139 125° Southeast 482 555 45,000  Level Atlanta Center
06:18PM 32.6111 -86.9831 125° Southeast 482 555 45,000  Level Atlanta Center
06:19PM 32.5347 -86.8550 125° Southeast 482 555 45,000  Level Atlanta Center
06:21PM 32.4412 -86.7021 134° Southeast  Level FlightAware Approximate
06:21PM 32.3800 -86.5844 134° Southeast 477 549 45,000  Level Atlanta Center
06:22PM 32.3028 -86.4789 131° Southeast 477 549 45,000  Level Atlanta Center
06:23PM 32.2047 -86.3708 137° Southeast 477 549 45,000  Level Atlanta Center
06:24PM 32.1172 -86.2508 131° Southeast 477 549 45,000  Level Atlanta Center
06:27PM 31.8950 -85.9831 134° Southeast 482 555 45,000  Level Jacksonville Center
06:28PM 31.8017 -85.8700 134° Southeast 477 549 45,000  Level Jacksonville Center
06:29PM 31.7103 -85.7594 134° Southeast 477 549 45,000  Level Jacksonville Center
06:30PM 31.6189 -85.6469 134° Southeast 477 549 45,000  Level Jacksonville Center
06:31PM 31.5272 -85.5369 134° Southeast 477 549 45,000  Level Jacksonville Center
06:32PM 31.4356 -85.4272 134° Southeast 477 549 45,000  Level Jacksonville Center
06:33PM 31.3439 -85.3153 134° Southeast 477 549 45,000  Level Jacksonville Center
06:34PM 31.2561 -85.2036 133° Southeast 472 543 45,000  Level Jacksonville Center
06:35PM 31.1475 -85.0844 137° Southeast 472 543 45,000 120 Level Jacksonville Center
06:36PM 31.0383 -85.0044 148° Southeast 472 543 45,300 840 Climbing Jacksonville Center
06:37PM 30.9136 -84.9628 164° South 460 529 46,700 1,020 Climbing Jacksonville Center
06:38PM 30.7908 -84.9311 168° South 459 528 47,400 600 Climbing Jacksonville Center
06:39PM 30.6683 -84.9019 168° South 459 528 47,900 300 Climbing Jacksonville Center
06:40PM 30.5456 -84.8706 168° South 448 516 48,100 120 Climbing Jacksonville Center
06:41PM 30.4228 -84.8389 167° South 448 516 48,200 60 Climbing Jacksonville Center
06:42PM 30.2981 -84.8075 168° South 453 521 48,300 60 Climbing Jacksonville Center
06:43PM 30.1733 -84.7667 164° South 458 527 48,400 60 Climbing Jacksonville Center
06:44PM 30.0658 -84.6925 149° Southeast 448 516 48,500 60 Climbing Jacksonville Center
06:45PM 29.9564 -84.6092 147° Southeast 459 528 48,600 120 Climbing Jacksonville Center
06:46PM 29.8469 -84.5281 147° Southeast 464 534 48,800 180 Climbing Jacksonville Center
06:47PM 29.7433 -84.4497 147° Southeast 464 534 49,000  Climbing Jacksonville Center
06:48PM 29.6358 -84.3717 148° Southeast 458 527 48,900  Descending Jacksonville Center
06:49PM 29.5281 -84.2914 147° Southeast 458 527 49,000  Climbing Jacksonville Center
06:50PM 29.4289 -84.2158 146° Southeast 458 527 49,000  Level Jacksonville Center
06:51PM 29.3231 -84.1358 147° Southeast 458 527 49,000  Level Jacksonville Center
06:52PM 29.2153 -84.0583 148° Southeast 458 527 49,000  Level Jacksonville Center
06:53PM 29.1075 -83.9764 146° Southeast 458 527 49,000  Level Jacksonville Center
06:54PM 28.9933 -83.9061 152° Southeast 458 527 49,000  Level Jacksonville Center
06:55PM 28.8747 -83.8506 158° South 458 527 49,000 -60 Level Jacksonville Center
06:57PM 28.6094 -83.7258 158° South 464 534 48,900 -60 Descending Miami Center
06:58PM 28.4894 -83.6667 157° South 464 534 48,900  Level Miami Center
06:59PM 28.3689 -83.6144 159° South 464 534 49,000  Climbing Miami Center
07:00PM 28.2606 -83.5656 158° South 464 534 49,000  Level Miami Center
07:01PM 28.1403 -83.5089 157° South 464 534 49,000 -720 Level Miami Center
07:02PM 28.0219 -83.4550 158° South 464 534 47,600 -2,280 Descending Miami Center
07:03PM 27.8975 -83.3939 157° South 469 540 44,500 -3,180 Descending Miami Center
07:04PM 27.7708 -83.3325 157° South 480 552 41,300 -2,580 Descending Miami Center
07:05PM 27.6428 -83.2597 153° Southeast 503 579 39,400 -2,100 Descending Miami Center
07:06PM 27.5144 -83.1872 153° Southeast 514 592 37,200 -2,460 Descending Miami Center
07:07PM 27.3861 -83.1194 155° Southeast 514 592 34,500 -3,000 Descending Miami Center
07:08PM 27.2575 -83.0539 156° South 514 592 31,300 -3,300 Descending Miami Center
07:09PM 27.1381 -82.9658 147° Southeast 514 592 28,000 -3,180 Descending Miami Center
07:10PM 27.0486 -82.8611 134° Southeast 493 567 25,000 -3,000 Descending Miami Center
07:11PM 26.9631 -82.7589 133° Southeast 465 535 22,100 -2,880 Descending Miami Center
07:12PM 26.8856 -82.6664 133° Southeast 430 495 19,300 -2,700 Descending Miami Center
07:13PM 26.8097 -82.5789 134° Southeast 405 466 16,800 -2,640 Descending Miami Center
07:14PM 26.7339 -82.4869 133° Southeast 381 438 14,100 -2,520 Descending Miami Center
07:15PM 26.6658 -82.4094 134° Southeast 360 414 11,800 -2,220 Descending Miami Center
07:16PM 26.5914 -82.3408 141° Southeast 349 402 9,700 -1,680 Descending Miami Center
07:17PM 26.5222 -82.2911 147° Southeast 320 368 8,500 -1,500 Descending Miami Center
07:18PM 26.4700 -82.2378 138° Southeast 290 334 6,700 -1,800 Descending Miami Center
07:19PM 26.4114 -82.1864 142° Southeast 277 319 4,900 -1,620 Descending Miami Center
07:20PM 26.3547 -82.1331 140° Southeast 267 307 3,500 -960 Descending Miami Center
07:21PM 26.3003 -82.0794 139° Southeast 267 307 3,000 -300 Descending Miami Center
07:22PM 26.2436 -82.0283 141° Southeast 267 307 3,000  Level Miami Center
07:24PM 26.0590 -81.9026 106° East  Level FlightAware Approximate
07:31PM 25.9950 -81.6725 114° Southeast  Level Estimated
07:32PM 25.9950 -81.6725 114° Southeast  Level Estimated
07:33PM 25.9950 -81.6725 114° Southeast  Level Estimated
07:34PM 25.9950 -81.6725 114° Southeast  Level Estimated
07:35PM 25.9950 -81.6725 114° Southeast  Level Estimated
07:36PM 25.9950 -81.6725 114° Southeast  Level Estimated
07:37PM 25.9950 -81.6725 114° Southeast  Level Estimated
07:38PM 25.9950 -81.6725 114° Southeast  Level Estimated
07:39PM 25.9950 -81.6725 114° Southeast  Level Estimated